Camp Verde, Texas
Current Conditions -  °F | °C
As of 3:55 AM on Sunday 25 Jan 2015 (Local Time) from KERV Reporting Station
Clear Clear  
Wind Chill: -2°   Ceiling: Unl
Heat Index:   Visibility: 10mi
Dew Point:   Wind: 6mph
Humidity: 94%   Direction: 320°NW
Pressure: 30.08"   Gusts: NA
Location:  29.9075°N, 98.9982°W
Report Text: KERV 250955Z AUTO 32005KT 10SM CLR 01/00 A3008 RMK AO2 T00080000
Loading
Personal Weather Stations






























Interactive Weather Map New forecast layout! Learn more

10-Day Weather Forecast

Advertisements
Track Severe Weather on mobile